sensor_id;sensor_type;location;lat;lon;timestamp;P1;durP1;ratioP1;P2;durP2;ratioP2
52320;SDS011;38261;54.090;13.382;2022-07-21T00:00:39;13.13;;;8.00;;
52320;SDS011;38261;54.090;13.382;2022-07-21T00:02:01;10.30;;;7.70;;
52320;SDS011;38261;54.090;13.382;2022-07-21T00:03:23;11.93;;;7.80;;
52320;SDS011;38261;54.090;13.382;2022-07-21T00:04:45;11.73;;;7.33;;
52320;SDS011;38261;54.090;13.382;2022-07-21T00:06:07;14.97;;;7.10;;
52320;SDS011;38261;54.090;13.382;2022-07-21T00:07:29;18.33;;;7.73;;
52320;SDS011;38261;54.090;13.382;2022-07-21T00:08:52;12.90;;;7.53;;
52320;SDS011;38261;54.090;13.382;2022-07-21T00:10:15;13.53;;;7.90;;
52320;SDS011;38261;54.090;13.382;2022-07-21T00:11:38;13.73;;;7.30;;
52320;SDS011;38261;54.090;13.382;2022-07-21T00:13:01;10.80;;;7.27;;
52320;SDS011;38261;54.090;13.382;2022-07-21T00:14:23;15.97;;;7.67;;
52320;SDS011;38261;54.090;13.382;2022-07-21T00:15:45;16.67;;;7.83;;
52320;SDS011;38261;54.090;13.382;2022-07-21T00:17:08;9.57;;;7.27;;
52320;SDS011;38261;54.090;13.382;2022-07-21T00:18:30;12.27;;;7.00;;
52320;SDS011;38261;54.090;13.382;2022-07-21T00:19:53;12.53;;;7.77;;
52320;SDS011;38261;54.090;13.382;2022-07-21T00:21:15;11.57;;;7.40;;
52320;SDS011;38261;54.090;13.382;2022-07-21T00:22:37;11.63;;;7.63;;
52320;SDS011;38261;54.090;13.382;2022-07-21T00:23:59;12.83;;;7.20;;
52320;SDS011;38261;54.090;13.382;2022-07-21T00:25:21;11.50;;;7.80;;
52320;SDS011;38261;54.090;13.382;2022-07-21T00:26:46;11.83;;;7.53;;
52320;SDS011;38261;54.090;13.382;2022-07-21T00:28:08;16.23;;;8.00;;
52320;SDS011;38261;54.090;13.382;2022-07-21T00:29:30;11.17;;;7.13;;
52320;SDS011;38261;54.090;13.382;2022-07-21T00:30:53;13.60;;;8.03;;
52320;SDS011;38261;54.090;13.382;2022-07-21T00:32:15;17.00;;;8.47;;
52320;SDS011;38261;54.090;13.382;2022-07-21T00:33:37;13.60;;;7.67;;
52320;SDS011;38261;54.090;13.382;2022-07-21T00:34:59;14.80;;;7.47;;
52320;SDS011;38261;54.090;13.382;2022-07-21T00:36:21;24.83;;;7.93;;
52320;SDS011;38261;54.090;13.382;2022-07-21T00:37:43;11.73;;;7.60;;
52320;SDS011;38261;54.090;13.382;2022-07-21T00:39:05;12.00;;;7.40;;
52320;SDS011;38261;54.090;13.382;2022-07-21T00:40:28;12.73;;;8.00;;
52320;SDS011;38261;54.090;13.382;2022-07-21T00:41:50;11.97;;;6.90;;
52320;SDS011;38261;54.090;13.382;2022-07-21T00:43:12;10.17;;;6.50;;
52320;SDS011;38261;54.090;13.382;2022-07-21T00:44:34;13.43;;;7.40;;
52320;SDS011;38261;54.090;13.382;2022-07-21T00:45:56;16.20;;;7.10;;
52320;SDS011;38261;54.090;13.382;2022-07-21T00:47:19;11.70;;;7.20;;
52320;SDS011;38261;54.090;13.382;2022-07-21T00:48:42;8.57;;;7.03;;
52320;SDS011;38261;54.090;13.382;2022-07-21T00:50:14;10.00;;;6.67;;
52320;SDS011;38261;54.090;13.382;2022-07-21T00:51:38;12.43;;;7.20;;
52320;SDS011;38261;54.090;13.382;2022-07-21T00:53:00;12.13;;;7.40;;
52320;SDS011;38261;54.090;13.382;2022-07-21T00:54:22;13.30;;;7.67;;
52320;SDS011;38261;54.090;13.382;2022-07-21T00:55:45;23.10;;;6.87;;
52320;SDS011;38261;54.090;13.382;2022-07-21T00:57:08;9.30;;;6.87;;
52320;SDS011;38261;54.090;13.382;2022-07-21T00:58:30;8.50;;;6.90;;
52320;SDS011;38261;54.090;13.382;2022-07-21T00:59:52;13.77;;;7.33;;
52320;SDS011;38261;54.090;13.382;2022-07-21T01:01:15;11.33;;;7.30;;
52320;SDS011;38261;54.090;13.382;2022-07-21T01:02:37;12.97;;;7.40;;
52320;SDS011;38261;54.090;13.382;2022-07-21T01:03:59;11.87;;;7.13;;
52320;SDS011;38261;54.090;13.382;2022-07-21T01:05:21;14.80;;;6.50;;
52320;SDS011;38261;54.090;13.382;2022-07-21T01:06:44;12.33;;;6.67;;
52320;SDS011;38261;54.090;13.382;2022-07-21T01:08:06;11.27;;;7.00;;
52320;SDS011;38261;54.090;13.382;2022-07-21T01:09:29;10.20;;;6.57;;
52320;SDS011;38261;54.090;13.382;2022-07-21T01:10:52;8.77;;;6.47;;
52320;SDS011;38261;54.090;13.382;2022-07-21T01:12:14;13.13;;;6.77;;
52320;SDS011;38261;54.090;13.382;2022-07-21T01:13:36;11.20;;;6.97;;
52320;SDS011;38261;54.090;13.382;2022-07-21T01:15:03;14.30;;;7.53;;
52320;SDS011;38261;54.090;13.382;2022-07-21T01:16:27;14.50;;;7.53;;
52320;SDS011;38261;54.090;13.382;2022-07-21T01:17:49;12.53;;;7.13;;
52320;SDS011;38261;54.090;13.382;2022-07-21T01:19:12;12.30;;;6.40;;
52320;SDS011;38261;54.090;13.382;2022-07-21T01:20:34;10.37;;;6.80;;
52320;SDS011;38261;54.090;13.382;2022-07-21T01:21:57;13.67;;;7.70;;
52320;SDS011;38261;54.090;13.382;2022-07-21T01:23:20;11.07;;;7.90;;
52320;SDS011;38261;54.090;13.382;2022-07-21T01:24:43;11.63;;;7.23;;
52320;SDS011;38261;54.090;13.382;2022-07-21T01:26:05;12.40;;;7.20;;
52320;SDS011;38261;54.090;13.382;2022-07-21T01:27:27;10.13;;;7.10;;
52320;SDS011;38261;54.090;13.382;2022-07-21T01:28:50;9.87;;;6.70;;
52320;SDS011;38261;54.090;13.382;2022-07-21T01:30:13;14.00;;;6.53;;
52320;SDS011;38261;54.090;13.382;2022-07-21T01:31:36;10.63;;;7.27;;
52320;SDS011;38261;54.090;13.382;2022-07-21T01:33:00;18.67;;;7.40;;
52320;SDS011;38261;54.090;13.382;2022-07-21T01:34:22;10.87;;;6.97;;
52320;SDS011;38261;54.090;13.382;2022-07-21T01:35:44;15.83;;;7.60;;
52320;SDS011;38261;54.090;13.382;2022-07-21T01:37:07;12.43;;;6.73;;
52320;SDS011;38261;54.090;13.382;2022-07-21T01:38:30;17.50;;;7.20;;
52320;SDS011;38261;54.090;13.382;2022-07-21T01:40:12;10.70;;;6.67;;
52320;SDS011;38261;54.090;13.382;2022-07-21T01:41:54;15.80;;;7.57;;
52320;SDS011;38261;54.090;13.382;2022-07-21T01:43:16;11.27;;;6.97;;
52320;SDS011;38261;54.090;13.382;2022-07-21T01:44:39;12.40;;;7.60;;
52320;SDS011;38261;54.090;13.382;2022-07-21T01:46:01;12.93;;;6.90;;
52320;SDS011;38261;54.090;13.382;2022-07-21T01:47:23;21.03;;;7.43;;
52320;SDS011;38261;54.090;13.382;2022-07-21T01:48:45;9.53;;;7.03;;
52320;SDS011;38261;54.090;13.382;2022-07-21T01:50:07;10.87;;;6.93;;
52320;SDS011;38261;54.090;13.382;2022-07-21T01:51:30;9.97;;;6.47;;
52320;SDS011;38261;54.090;13.382;2022-07-21T01:52:53;11.90;;;6.83;;
52320;SDS011;38261;54.090;13.382;2022-07-21T01:54:16;13.93;;;7.70;;
52320;SDS011;38261;54.090;13.382;2022-07-21T01:55:44;14.00;;;7.40;;
52320;SDS011;38261;54.090;13.382;2022-07-21T01:57:06;10.17;;;6.03;;
52320;SDS011;38261;54.090;13.382;2022-07-21T01:58:29;12.47;;;7.67;;
52320;SDS011;38261;54.090;13.382;2022-07-21T01:59:51;10.47;;;7.30;;
52320;SDS011;38261;54.090;13.382;2022-07-21T02:01:17;12.13;;;7.60;;
52320;SDS011;38261;54.090;13.382;2022-07-21T02:02:40;9.90;;;6.70;;
52320;SDS011;38261;54.090;13.382;2022-07-21T02:04:03;12.43;;;7.97;;
52320;SDS011;38261;54.090;13.382;2022-07-21T02:05:26;11.53;;;6.80;;
52320;SDS011;38261;54.090;13.382;2022-07-21T02:06:48;12.03;;;7.37;;
52320;SDS011;38261;54.090;13.382;2022-07-21T02:08:11;12.13;;;7.20;;
52320;SDS011;38261;54.090;13.382;2022-07-21T02:09:33;11.70;;;6.90;;
52320;SDS011;38261;54.090;13.382;2022-07-21T02:10:55;10.43;;;6.80;;
52320;SDS011;38261;54.090;13.382;2022-07-21T02:12:17;12.40;;;8.03;;
52320;SDS011;38261;54.090;13.382;2022-07-21T02:13:39;12.77;;;7.50;;
52320;SDS011;38261;54.090;13.382;2022-07-21T02:15:02;11.87;;;7.20;;
52320;SDS011;38261;54.090;13.382;2022-07-21T02:16:24;11.20;;;7.17;;
52320;SDS011;38261;54.090;13.382;2022-07-21T02:17:46;10.03;;;6.80;;
52320;SDS011;38261;54.090;13.382;2022-07-21T02:19:09;12.00;;;7.13;;
52320;SDS011;38261;54.090;13.382;2022-07-21T02:20:31;15.57;;;7.20;;
52320;SDS011;38261;54.090;13.382;2022-07-21T02:21:53;19.13;;;7.30;;
52320;SDS011;38261;54.090;13.382;2022-07-21T02:23:15;12.40;;;7.47;;
52320;SDS011;38261;54.090;13.382;2022-07-21T02:24:40;18.50;;;6.90;;
52320;SDS011;38261;54.090;13.382;2022-07-21T02:26:03;18.90;;;8.57;;
52320;SDS011;38261;54.090;13.382;2022-07-21T02:27:25;10.30;;;6.87;;
52320;SDS011;38261;54.090;13.382;2022-07-21T02:28:47;15.97;;;7.27;;
52320;SDS011;38261;54.090;13.382;2022-07-21T02:30:10;11.90;;;7.10;;
52320;SDS011;38261;54.090;13.382;2022-07-21T02:31:34;11.30;;;7.50;;
52320;SDS011;38261;54.090;13.382;2022-07-21T02:32:56;11.37;;;6.93;;
52320;SDS011;38261;54.090;13.382;2022-07-21T02:34:18;10.03;;;7.00;;
52320;SDS011;38261;54.090;13.382;2022-07-21T02:35:40;13.23;;;6.67;;
52320;SDS011;38261;54.090;13.382;2022-07-21T02:37:04;19.37;;;6.97;;
52320;SDS011;38261;54.090;13.382;2022-07-21T02:38:26;12.57;;;7.37;;
52320;SDS011;38261;54.090;13.382;2022-07-21T02:39:48;12.47;;;7.27;;
52320;SDS011;38261;54.090;13.382;2022-07-21T02:41:11;13.80;;;7.10;;
52320;SDS011;38261;54.090;13.382;2022-07-21T02:42:33;14.53;;;7.60;;
52320;SDS011;38261;54.090;13.382;2022-07-21T02:43:55;17.90;;;7.40;;
52320;SDS011;38261;54.090;13.382;2022-07-21T02:45:17;14.70;;;6.90;;
52320;SDS011;38261;54.090;13.382;2022-07-21T02:46:41;11.03;;;7.60;;
52320;SDS011;38261;54.090;13.382;2022-07-21T02:48:04;13.53;;;7.90;;
52320;SDS011;38261;54.090;13.382;2022-07-21T02:49:28;15.13;;;8.50;;
52320;SDS011;38261;54.090;13.382;2022-07-21T02:50:50;13.97;;;7.00;;
52320;SDS011;38261;54.090;13.382;2022-07-21T02:52:13;14.77;;;7.87;;
52320;SDS011;38261;54.090;13.382;2022-07-21T02:53:36;8.40;;;6.83;;
52320;SDS011;38261;54.090;13.382;2022-07-21T02:54:58;12.90;;;7.23;;
52320;SDS011;38261;54.090;13.382;2022-07-21T02:56:20;16.03;;;6.70;;
52320;SDS011;38261;54.090;13.382;2022-07-21T02:57:42;13.67;;;7.50;;
52320;SDS011;38261;54.090;13.382;2022-07-21T02:59:04;13.80;;;7.30;;
52320;SDS011;38261;54.090;13.382;2022-07-21T03:00:26;10.27;;;7.30;;
52320;SDS011;38261;54.090;13.382;2022-07-21T03:01:48;10.90;;;7.10;;
52320;SDS011;38261;54.090;13.382;2022-07-21T03:03:11;16.83;;;7.27;;
52320;SDS011;38261;54.090;13.382;2022-07-21T03:04:33;13.10;;;7.27;;
52320;SDS011;38261;54.090;13.382;2022-07-21T03:05:55;12.47;;;7.07;;
52320;SDS011;38261;54.090;13.382;2022-07-21T03:07:17;11.97;;;7.13;;
52320;SDS011;38261;54.090;13.382;2022-07-21T03:08:40;9.00;;;6.03;;
52320;SDS011;38261;54.090;13.382;2022-07-21T03:10:02;11.07;;;7.20;;
52320;SDS011;38261;54.090;13.382;2022-07-21T03:11:24;15.13;;;7.00;;
52320;SDS011;38261;54.090;13.382;2022-07-21T03:12:46;12.53;;;6.87;;
52320;SDS011;38261;54.090;13.382;2022-07-21T03:14:09;13.73;;;7.80;;
52320;SDS011;38261;54.090;13.382;2022-07-21T03:15:31;14.67;;;7.33;;
52320;SDS011;38261;54.090;13.382;2022-07-21T03:16:53;11.80;;;7.03;;
52320;SDS011;38261;54.090;13.382;2022-07-21T03:18:16;15.33;;;7.57;;
52320;SDS011;38261;54.090;13.382;2022-07-21T03:19:38;12.70;;;7.37;;
52320;SDS011;38261;54.090;13.382;2022-07-21T03:21:00;10.57;;;6.90;;
52320;SDS011;38261;54.090;13.382;2022-07-21T03:22:23;19.03;;;7.03;;
52320;SDS011;38261;54.090;13.382;2022-07-21T03:23:45;13.00;;;6.70;;
52320;SDS011;38261;54.090;13.382;2022-07-21T03:25:07;10.10;;;7.30;;
52320;SDS011;38261;54.090;13.382;2022-07-21T03:26:29;10.73;;;6.80;;
52320;SDS011;38261;54.090;13.382;2022-07-21T03:27:52;10.57;;;6.43;;
52320;SDS011;38261;54.090;13.382;2022-07-21T03:29:15;16.57;;;7.10;;
52320;SDS011;38261;54.090;13.382;2022-07-21T03:30:37;13.93;;;6.50;;
52320;SDS011;38261;54.090;13.382;2022-07-21T03:32:00;16.80;;;7.00;;
52320;SDS011;38261;54.090;13.382;2022-07-21T03:33:22;15.00;;;7.83;;
52320;SDS011;38261;54.090;13.382;2022-07-21T03:34:45;11.00;;;6.90;;
52320;SDS011;38261;54.090;13.382;2022-07-21T03:36:07;14.60;;;8.30;;
52320;SDS011;38261;54.090;13.382;2022-07-21T03:37:29;10.03;;;6.67;;
52320;SDS011;38261;54.090;13.382;2022-07-21T03:38:52;11.83;;;7.20;;
52320;SDS011;38261;54.090;13.382;2022-07-21T03:40:16;7.73;;;6.73;;
52320;SDS011;38261;54.090;13.382;2022-07-21T03:41:39;14.90;;;7.43;;
52320;SDS011;38261;54.090;13.382;2022-07-21T03:43:02;12.23;;;6.90;;
52320;SDS011;38261;54.090;13.382;2022-07-21T03:44:25;14.37;;;7.53;;
52320;SDS011;38261;54.090;13.382;2022-07-21T03:46:56;12.13;;;8.30;;
52320;SDS011;38261;54.090;13.382;2022-07-21T03:48:20;10.80;;;6.60;;
52320;SDS011;38261;54.090;13.382;2022-07-21T03:49:42;12.33;;;7.43;;
52320;SDS011;38261;54.090;13.382;2022-07-21T03:51:04;15.77;;;6.53;;
52320;SDS011;38261;54.090;13.382;2022-07-21T03:52:27;12.60;;;6.53;;
52320;SDS011;38261;54.090;13.382;2022-07-21T03:53:50;13.10;;;7.30;;
52320;SDS011;38261;54.090;13.382;2022-07-21T03:55:12;11.13;;;7.27;;
52320;SDS011;38261;54.090;13.382;2022-07-21T03:56:39;11.00;;;7.73;;
52320;SDS011;38261;54.090;13.382;2022-07-21T03:58:03;13.33;;;7.13;;
52320;SDS011;38261;54.090;13.382;2022-07-21T03:59:26;8.33;;;7.10;;
52320;SDS011;38261;54.090;13.382;2022-07-21T04:00:49;11.17;;;6.80;;
52320;SDS011;38261;54.090;13.382;2022-07-21T04:02:11;9.57;;;6.77;;
52320;SDS011;38261;54.090;13.382;2022-07-21T04:03:33;15.73;;;8.33;;
52320;SDS011;38261;54.090;13.382;2022-07-21T04:04:56;16.10;;;7.83;;
52320;SDS011;38261;54.090;13.382;2022-07-21T04:06:19;9.90;;;6.57;;
52320;SDS011;38261;54.090;13.382;2022-07-21T04:07:41;16.23;;;7.67;;
52320;SDS011;38261;54.090;13.382;2022-07-21T04:09:04;11.20;;;7.07;;
52320;SDS011;38261;54.090;13.382;2022-07-21T04:10:28;14.93;;;7.70;;
52320;SDS011;38261;54.090;13.382;2022-07-21T04:11:51;11.50;;;6.13;;
52320;SDS011;38261;54.090;13.382;2022-07-21T04:13:13;12.00;;;6.50;;
52320;SDS011;38261;54.090;13.382;2022-07-21T04:14:36;12.33;;;6.93;;
52320;SDS011;38261;54.090;13.382;2022-07-21T04:15:58;11.30;;;7.07;;
52320;SDS011;38261;54.090;13.382;2022-07-21T04:17:21;13.10;;;6.67;;
52320;SDS011;38261;54.090;13.382;2022-07-21T04:18:43;8.07;;;6.60;;
52320;SDS011;38261;54.090;13.382;2022-07-21T04:20:06;11.23;;;6.27;;
52320;SDS011;38261;54.090;13.382;2022-07-21T04:21:29;9.90;;;6.30;;
52320;SDS011;38261;54.090;13.382;2022-07-21T04:22:52;10.33;;;6.60;;
52320;SDS011;38261;54.090;13.382;2022-07-21T04:24:15;11.67;;;8.00;;
52320;SDS011;38261;54.090;13.382;2022-07-21T04:25:37;11.60;;;7.20;;
52320;SDS011;38261;54.090;13.382;2022-07-21T04:27:00;9.90;;;6.90;;
52320;SDS011;38261;54.090;13.382;2022-07-21T04:28:24;13.17;;;6.40;;
52320;SDS011;38261;54.090;13.382;2022-07-21T04:29:46;10.43;;;6.00;;
52320;SDS011;38261;54.090;13.382;2022-07-21T04:31:08;12.00;;;6.40;;
52320;SDS011;38261;54.090;13.382;2022-07-21T04:32:30;9.40;;;6.97;;
52320;SDS011;38261;54.090;13.382;2022-07-21T04:33:52;9.30;;;7.10;;
52320;SDS011;38261;54.090;13.382;2022-07-21T04:35:15;10.50;;;7.63;;
52320;SDS011;38261;54.090;13.382;2022-07-21T04:36:38;9.27;;;6.47;;
52320;SDS011;38261;54.090;13.382;2022-07-21T04:38:00;8.87;;;6.03;;
52320;SDS011;38261;54.090;13.382;2022-07-21T04:39:22;10.33;;;6.23;;
52320;SDS011;38261;54.090;13.382;2022-07-21T04:40:44;8.53;;;6.50;;
52320;SDS011;38261;54.090;13.382;2022-07-21T04:42:06;12.87;;;6.10;;
52320;SDS011;38261;54.090;13.382;2022-07-21T04:43:29;12.33;;;6.33;;
52320;SDS011;38261;54.090;13.382;2022-07-21T04:44:51;8.73;;;6.60;;
52320;SDS011;38261;54.090;13.382;2022-07-21T04:46:13;7.47;;;6.67;;
52320;SDS011;38261;54.090;13.382;2022-07-21T04:47:53;8.97;;;6.40;;
52320;SDS011;38261;54.090;13.382;2022-07-21T04:49:16;12.53;;;6.83;;
52320;SDS011;38261;54.090;13.382;2022-07-21T04:50:39;6.63;;;6.00;;
52320;SDS011;38261;54.090;13.382;2022-07-21T04:52:01;9.10;;;6.30;;
52320;SDS011;38261;54.090;13.382;2022-07-21T04:53:26;9.70;;;7.00;;
52320;SDS011;38261;54.090;13.382;2022-07-21T04:54:48;12.93;;;5.93;;
52320;SDS011;38261;54.090;13.382;2022-07-21T04:56:10;9.40;;;6.17;;
52320;SDS011;38261;54.090;13.382;2022-07-21T04:57:36;8.30;;;5.90;;
52320;SDS011;38261;54.090;13.382;2022-07-21T04:58:59;8.23;;;6.87;;
52320;SDS011;38261;54.090;13.382;2022-07-21T05:00:25;8.37;;;6.13;;
52320;SDS011;38261;54.090;13.382;2022-07-21T05:01:47;6.87;;;5.80;;
52320;SDS011;38261;54.090;13.382;2022-07-21T05:03:10;11.80;;;6.00;;
52320;SDS011;38261;54.090;13.382;2022-07-21T05:04:34;8.63;;;6.00;;
52320;SDS011;38261;54.090;13.382;2022-07-21T05:05:56;9.60;;;6.20;;
52320;SDS011;38261;54.090;13.382;2022-07-21T05:07:18;8.00;;;5.70;;
52320;SDS011;38261;54.090;13.382;2022-07-21T05:08:40;9.50;;;6.50;;
52320;SDS011;38261;54.090;13.382;2022-07-21T05:10:05;9.63;;;6.33;;
52320;SDS011;38261;54.090;13.382;2022-07-21T05:11:32;9.03;;;6.87;;
52320;SDS011;38261;54.090;13.382;2022-07-21T05:12:54;11.03;;;7.10;;
52320;SDS011;38261;54.090;13.382;2022-07-21T05:14:16;8.73;;;6.17;;
52320;SDS011;38261;54.090;13.382;2022-07-21T05:15:38;12.67;;;7.50;;
52320;SDS011;38261;54.090;13.382;2022-07-21T05:17:00;8.20;;;6.70;;
52320;SDS011;38261;54.090;13.382;2022-07-21T05:18:23;11.97;;;6.10;;
52320;SDS011;38261;54.090;13.382;2022-07-21T05:19:45;10.60;;;6.20;;
52320;SDS011;38261;54.090;13.382;2022-07-21T05:21:19;8.20;;;5.53;;
52320;SDS011;38261;54.090;13.382;2022-07-21T05:22:41;11.27;;;6.00;;
52320;SDS011;38261;54.090;13.382;2022-07-21T05:24:04;6.73;;;5.50;;
52320;SDS011;38261;54.090;13.382;2022-07-21T05:25:26;8.67;;;5.60;;
52320;SDS011;38261;54.090;13.382;2022-07-21T05:26:48;8.17;;;5.77;;
52320;SDS011;38261;54.090;13.382;2022-07-21T05:28:10;14.87;;;6.27;;
52320;SDS011;38261;54.090;13.382;2022-07-21T05:29:32;7.97;;;5.53;;
52320;SDS011;38261;54.090;13.382;2022-07-21T05:30:54;11.63;;;6.20;;
52320;SDS011;38261;54.090;13.382;2022-07-21T05:32:17;11.60;;;5.60;;
52320;SDS011;38261;54.090;13.382;2022-07-21T05:33:39;9.80;;;5.90;;
52320;SDS011;38261;54.090;13.382;2022-07-21T05:35:01;8.60;;;5.60;;
52320;SDS011;38261;54.090;13.382;2022-07-21T05:36:29;7.37;;;5.33;;
52320;SDS011;38261;54.090;13.382;2022-07-21T05:37:51;11.93;;;5.83;;
52320;SDS011;38261;54.090;13.382;2022-07-21T05:39:14;11.87;;;5.83;;
52320;SDS011;38261;54.090;13.382;2022-07-21T05:40:36;7.20;;;6.00;;
52320;SDS011;38261;54.090;13.382;2022-07-21T05:41:58;7.83;;;5.60;;
52320;SDS011;38261;54.090;13.382;2022-07-21T05:43:20;6.13;;;5.40;;
52320;SDS011;38261;54.090;13.382;2022-07-21T05:44:42;11.33;;;5.87;;
52320;SDS011;38261;54.090;13.382;2022-07-21T05:46:05;15.20;;;5.23;;
52320;SDS011;38261;54.090;13.382;2022-07-21T05:47:28;7.80;;;4.85;;
52320;SDS011;38261;54.090;13.382;2022-07-21T05:48:52;9.47;;;5.17;;
52320;SDS011;38261;54.090;13.382;2022-07-21T05:50:16;6.70;;;5.60;;
52320;SDS011;38261;54.090;13.382;2022-07-21T05:51:38;9.05;;;5.40;;
52320;SDS011;38261;54.090;13.382;2022-07-21T05:53:00;8.20;;;5.20;;
52320;SDS011;38261;54.090;13.382;2022-07-21T05:54:22;7.97;;;5.82;;
52320;SDS011;38261;54.090;13.382;2022-07-21T05:55:44;9.60;;;6.00;;
52320;SDS011;38261;54.090;13.382;2022-07-21T05:57:07;10.20;;;5.67;;
52320;SDS011;38261;54.090;13.382;2022-07-21T05:58:30;8.27;;;5.37;;
52320;SDS011;38261;54.090;13.382;2022-07-21T05:59:54;10.67;;;5.17;;
52320;SDS011;38261;54.090;13.382;2022-07-21T06:01:17;6.53;;;5.40;;
52320;SDS011;38261;54.090;13.382;2022-07-21T06:02:39;7.15;;;5.03;;
52320;SDS011;38261;54.090;13.382;2022-07-21T06:04:01;12.30;;;6.10;;
52320;SDS011;38261;54.090;13.382;2022-07-21T06:05:23;7.13;;;5.40;;
52320;SDS011;38261;54.090;13.382;2022-07-21T06:06:46;9.33;;;5.03;;
52320;SDS011;38261;54.090;13.382;2022-07-21T06:08:08;10.02;;;6.65;;
52320;SDS011;38261;54.090;13.382;2022-07-21T06:09:30;7.30;;;5.30;;
52320;SDS011;38261;54.090;13.382;2022-07-21T06:10:52;7.55;;;5.53;;
52320;SDS011;38261;54.090;13.382;2022-07-21T06:12:14;5.82;;;5.22;;
52320;SDS011;38261;54.090;13.382;2022-07-21T06:13:37;11.10;;;5.47;;
52320;SDS011;38261;54.090;13.382;2022-07-21T06:15:00;8.17;;;5.00;;
52320;SDS011;38261;54.090;13.382;2022-07-21T06:16:22;10.07;;;4.63;;
52320;SDS011;38261;54.090;13.382;2022-07-21T06:17:45;8.33;;;5.37;;
52320;SDS011;38261;54.090;13.382;2022-07-21T06:19:07;11.48;;;5.22;;
52320;SDS011;38261;54.090;13.382;2022-07-21T06:20:29;7.73;;;4.97;;
52320;SDS011;38261;54.090;13.382;2022-07-21T06:21:51;6.60;;;4.28;;
52320;SDS011;38261;54.090;13.382;2022-07-21T06:23:13;9.10;;;5.10;;
52320;SDS011;38261;54.090;13.382;2022-07-21T06:24:35;6.13;;;4.90;;
52320;SDS011;38261;54.090;13.382;2022-07-21T06:25:58;7.50;;;5.37;;
52320;SDS011;38261;54.090;13.382;2022-07-21T06:27:20;7.88;;;5.03;;
52320;SDS011;38261;54.090;13.382;2022-07-21T06:28:42;8.60;;;5.13;;
52320;SDS011;38261;54.090;13.382;2022-07-21T06:30:05;5.87;;;4.83;;
52320;SDS011;38261;54.090;13.382;2022-07-21T06:31:27;6.03;;;5.30;;
52320;SDS011;38261;54.090;13.382;2022-07-21T06:32:49;6.47;;;5.10;;
52320;SDS011;38261;54.090;13.382;2022-07-21T06:34:12;7.10;;;5.50;;
52320;SDS011;38261;54.090;13.382;2022-07-21T06:35:34;6.33;;;5.10;;
52320;SDS011;38261;54.090;13.382;2022-07-21T06:36:56;15.83;;;6.33;;
52320;SDS011;38261;54.090;13.382;2022-07-21T06:38:18;9.47;;;5.70;;
52320;SDS011;38261;54.090;13.382;2022-07-21T06:39:40;10.73;;;6.23;;
52320;SDS011;38261;54.090;13.382;2022-07-21T06:41:03;8.40;;;5.43;;
52320;SDS011;38261;54.090;13.382;2022-07-21T06:42:25;15.10;;;6.10;;
52320;SDS011;38261;54.090;13.382;2022-07-21T06:43:47;8.80;;;5.70;;
52320;SDS011;38261;54.090;13.382;2022-07-21T06:45:10;10.77;;;6.20;;
52320;SDS011;38261;54.090;13.382;2022-07-21T06:46:33;19.23;;;6.00;;
52320;SDS011;38261;54.090;13.382;2022-07-21T06:48:14;16.43;;;5.93;;
52320;SDS011;38261;54.090;13.382;2022-07-21T06:49:36;9.10;;;6.13;;
52320;SDS011;38261;54.090;13.382;2022-07-21T06:50:58;16.23;;;6.33;;
52320;SDS011;38261;54.090;13.382;2022-07-21T06:52:22;11.73;;;6.20;;
52320;SDS011;38261;54.090;13.382;2022-07-21T06:53:44;11.10;;;5.90;;
52320;SDS011;38261;54.090;13.382;2022-07-21T06:55:07;15.67;;;6.37;;
52320;SDS011;38261;54.090;13.382;2022-07-21T06:56:29;14.60;;;5.80;;
52320;SDS011;38261;54.090;13.382;2022-07-21T06:57:52;11.50;;;6.23;;
52320;SDS011;38261;54.090;13.382;2022-07-21T06:59:14;8.50;;;6.13;;
52320;SDS011;38261;54.090;13.382;2022-07-21T07:00:36;16.03;;;7.13;;
52320;SDS011;38261;54.090;13.382;2022-07-21T07:02:00;10.20;;;5.93;;
52320;SDS011;38261;54.090;13.382;2022-07-21T07:03:22;10.70;;;5.73;;
52320;SDS011;38261;54.090;13.382;2022-07-21T07:04:45;12.20;;;6.03;;
52320;SDS011;38261;54.090;13.382;2022-07-21T07:06:07;7.00;;;5.50;;
52320;SDS011;38261;54.090;13.382;2022-07-21T07:07:30;10.50;;;5.93;;
52320;SDS011;38261;54.090;13.382;2022-07-21T07:08:52;12.47;;;6.30;;
52320;SDS011;38261;54.090;13.382;2022-07-21T07:10:15;7.80;;;6.10;;
52320;SDS011;38261;54.090;13.382;2022-07-21T07:11:37;11.47;;;5.87;;
52320;SDS011;38261;54.090;13.382;2022-07-21T07:13:00;10.67;;;5.97;;
52320;SDS011;38261;54.090;13.382;2022-07-21T07:14:43;11.70;;;6.27;;
52320;SDS011;38261;54.090;13.382;2022-07-21T07:16:05;7.83;;;5.87;;
52320;SDS011;38261;54.090;13.382;2022-07-21T07:17:28;14.13;;;6.40;;
52320;SDS011;38261;54.090;13.382;2022-07-21T07:18:50;10.00;;;5.93;;
52320;SDS011;38261;54.090;13.382;2022-07-21T07:20:12;8.03;;;5.60;;
52320;SDS011;38261;54.090;13.382;2022-07-21T07:21:35;10.80;;;6.43;;
52320;SDS011;38261;54.090;13.382;2022-07-21T07:22:57;11.43;;;7.00;;
52320;SDS011;38261;54.090;13.382;2022-07-21T07:24:19;10.83;;;6.00;;
52320;SDS011;38261;54.090;13.382;2022-07-21T07:25:42;10.00;;;6.20;;
52320;SDS011;38261;54.090;13.382;2022-07-21T07:27:04;11.97;;;5.67;;
52320;SDS011;38261;54.090;13.382;2022-07-21T07:28:26;12.60;;;6.60;;
52320;SDS011;38261;54.090;13.382;2022-07-21T07:29:48;10.17;;;6.03;;
52320;SDS011;38261;54.090;13.382;2022-07-21T07:31:11;13.20;;;6.50;;
52320;SDS011;38261;54.090;13.382;2022-07-21T07:32:33;16.67;;;6.10;;
52320;SDS011;38261;54.090;13.382;2022-07-21T07:33:55;8.63;;;5.23;;
52320;SDS011;38261;54.090;13.382;2022-07-21T07:35:19;9.60;;;5.87;;
52320;SDS011;38261;54.090;13.382;2022-07-21T07:36:41;9.80;;;5.53;;
52320;SDS011;38261;54.090;13.382;2022-07-21T07:38:05;7.90;;;6.00;;
52320;SDS011;38261;54.090;13.382;2022-07-21T07:39:27;8.10;;;5.90;;
52320;SDS011;38261;54.090;13.382;2022-07-21T07:40:50;6.43;;;5.33;;
52320;SDS011;38261;54.090;13.382;2022-07-21T07:42:12;13.63;;;5.10;;
52320;SDS011;38261;54.090;13.382;2022-07-21T07:43:35;9.57;;;5.70;;
52320;SDS011;38261;54.090;13.382;2022-07-21T07:44:57;6.80;;;5.10;;
52320;SDS011;38261;54.090;13.382;2022-07-21T07:46:20;8.50;;;5.73;;
52320;SDS011;38261;54.090;13.382;2022-07-21T07:47:43;7.70;;;4.90;;
52320;SDS011;38261;54.090;13.382;2022-07-21T07:49:05;9.33;;;5.57;;
52320;SDS011;38261;54.090;13.382;2022-07-21T07:50:35;7.87;;;5.77;;
52320;SDS011;38261;54.090;13.382;2022-07-21T07:51:57;12.23;;;5.87;;
52320;SDS011;38261;54.090;13.382;2022-07-21T07:53:20;7.50;;;6.13;;
52320;SDS011;38261;54.090;13.382;2022-07-21T07:54:42;12.00;;;6.17;;
52320;SDS011;38261;54.090;13.382;2022-07-21T07:56:04;8.60;;;5.57;;
52320;SDS011;38261;54.090;13.382;2022-07-21T07:57:27;11.77;;;6.17;;
52320;SDS011;38261;54.090;13.382;2022-07-21T07:58:49;7.83;;;5.43;;
52320;SDS011;38261;54.090;13.382;2022-07-21T08:00:12;7.60;;;5.30;;
52320;SDS011;38261;54.090;13.382;2022-07-21T08:01:57;11.80;;;6.03;;
52320;SDS011;38261;54.090;13.382;2022-07-21T08:03:20;10.50;;;6.07;;
52320;SDS011;38261;54.090;13.382;2022-07-21T08:04:43;8.80;;;5.50;;
52320;SDS011;38261;54.090;13.382;2022-07-21T08:06:05;9.90;;;5.67;;
52320;SDS011;38261;54.090;13.382;2022-07-21T08:07:28;14.60;;;5.67;;
52320;SDS011;38261;54.090;13.382;2022-07-21T08:08:50;7.93;;;5.97;;